createdAt,value
2022-12-28T07:14:59.960Z,7.78
2022-12-28T07:17:27.626Z,9.93
2022-12-28T07:19:55.735Z,11.73
2022-12-28T07:22:23.340Z,9.32
2022-12-28T07:24:50.952Z,11.10
2022-12-28T07:27:18.447Z,10.73
2022-12-28T07:29:46.375Z,9.05
2022-12-28T07:32:13.941Z,11.15
2022-12-28T07:34:41.490Z,12.60
2022-12-28T07:37:09.044Z,13.25
2022-12-28T07:39:37.123Z,15.32
2022-12-28T07:42:06.971Z,11.85
2022-12-28T07:44:38.208Z,16.58
2022-12-28T07:47:06.221Z,15.73
2022-12-28T07:49:34.500Z,16.02
2022-12-28T07:52:01.974Z,13.57
2022-12-28T07:54:29.684Z,15.50
2022-12-28T07:56:57.304Z,11.43
2022-12-28T07:59:30.795Z,10.65
2022-12-28T08:01:59.413Z,13.60
2022-12-28T08:04:29.982Z,8.27
2022-12-28T08:06:57.874Z,10.20
2022-12-28T08:09:25.537Z,7.80
2022-12-28T08:11:55.214Z,9.25
2022-12-28T08:14:23.014Z,7.53
2022-12-28T08:16:50.503Z,11.20
2022-12-28T08:19:18.117Z,6.35
2022-12-28T08:21:46.048Z,11.43
2022-12-28T08:24:18.772Z,9.93
2022-12-28T08:26:47.834Z,6.03
2022-12-28T08:29:19.443Z,7.22
2022-12-28T08:31:47.985Z,6.85
2022-12-28T08:34:20.786Z,8.53
2022-12-28T08:36:48.333Z,8.07
2022-12-28T08:39:15.949Z,7.57
2022-12-28T08:41:43.602Z,10.88
2022-12-28T08:44:11.316Z,18.05
2022-12-28T08:46:40.859Z,7.03
2022-12-28T08:51:39.954Z,10.57
2022-12-28T08:54:09.544Z,9.40
2022-12-28T08:56:39.224Z,9.10
2022-12-28T09:01:43.661Z,9.02
2022-12-28T09:04:17.291Z,7.20
2022-12-28T09:06:45.439Z,5.85
2022-12-28T09:09:19.243Z,7.13
2022-12-28T09:11:47.895Z,11.23
2022-12-28T09:14:23.156Z,8.25
2022-12-28T09:16:53.138Z,7.75
2022-12-28T09:19:21.587Z,11.48
2022-12-28T09:21:52.396Z,9.95
2022-12-28T09:24:20.411Z,8.77
2022-12-28T09:26:48.837Z,7.45
2022-12-28T09:29:16.341Z,10.63
2022-12-28T09:31:44.460Z,14.32
2022-12-28T09:37:01.772Z,12.30
2022-12-28T09:39:29.545Z,12.10
2022-12-28T09:42:21.808Z,12.60
2022-12-28T09:45:02.006Z,27.10
2022-12-28T09:47:47.880Z,11.63
2022-12-28T09:50:17.457Z,17.60
2022-12-28T09:53:16.777Z,12.68
2022-12-28T09:56:09.933Z,6.60
2022-12-28T09:58:45.182Z,9.00
2022-12-28T10:01:17.969Z,11.05
2022-12-28T10:03:46.417Z,9.90
2022-12-28T10:06:24.762Z,15.07
2022-12-28T10:08:54.987Z,10.48
2022-12-28T10:11:41.243Z,11.77
2022-12-28T14:39:06.714Z,7.03
2022-12-28T14:41:45.779Z,3.60
2022-12-28T14:44:22.221Z,7.60
2022-12-28T14:46:54.407Z,4.25
2022-12-28T14:49:31.291Z,6.65
2022-12-28T14:52:09.326Z,7.82
2022-12-28T14:54:54.118Z,7.75
2022-12-28T14:57:32.909Z,8.30
2022-12-28T15:00:04.464Z,10.85
2022-12-28T15:02:35.249Z,13.68
2022-12-28T15:05:03.331Z,6.53
2022-12-28T15:07:33.606Z,10.20
2022-12-28T15:10:01.475Z,6.68
2022-12-28T15:12:29.233Z,11.20
2022-12-28T15:14:56.774Z,8.70
2022-12-28T15:17:29.741Z,7.28
2022-12-28T15:20:01.497Z,9.63
2022-12-28T15:22:31.915Z,6.25
2022-12-28T15:24:59.420Z,9.68
2022-12-28T15:27:27.002Z,8.02
2022-12-28T15:30:13.113Z,7.55
2022-12-28T15:32:42.593Z,7.72
2022-12-28T15:35:10.132Z,4.90
2022-12-28T15:37:37.999Z,9.45
2022-12-28T15:40:06.451Z,7.30
2022-12-28T15:42:40.092Z,9.07
2022-12-28T15:45:09.250Z,7.20
2022-12-28T15:47:37.053Z,6.90
2022-12-28T15:50:05.306Z,10.27
2022-12-28T15:52:33.532Z,8.65
2022-12-28T15:55:01.909Z,10.88
2022-12-28T15:57:29.907Z,9.43
2022-12-28T15:59:57.460Z,9.43
2022-12-28T16:02:25.171Z,10.27
2022-12-28T16:04:53.329Z,11.98
2022-12-28T16:07:21.030Z,17.08
2022-12-28T16:09:49.018Z,9.40
2022-12-28T16:12:17.556Z,13.90
2022-12-28T16:14:47.010Z,9.68
2022-12-28T16:17:14.997Z,9.57
2022-12-28T16:19:42.553Z,17.25
2022-12-28T16:22:10.188Z,14.55
2022-12-28T16:24:38.025Z,13.52
2022-12-28T16:27:05.825Z,9.73
2022-12-28T16:29:34.353Z,8.07
2022-12-28T16:32:02.116Z,10.57
2022-12-28T16:34:31.653Z,8.10
2022-12-28T16:39:28.997Z,8.05
2022-12-28T16:41:57.831Z,9.43
2022-12-28T16:44:29.625Z,8.68
2022-12-28T16:46:58.636Z,10.80
2022-12-28T16:49:27.492Z,12.43
2022-12-28T16:51:55.822Z,10.75
2022-12-28T16:54:25.373Z,16.38
2022-12-28T16:59:26.568Z,15.35
2022-12-28T17:01:56.187Z,18.23
2022-12-28T17:04:24.124Z,11.38
2022-12-28T17:06:52.481Z,19.17
2022-12-28T17:09:21.157Z,13.32
2022-12-28T17:11:50.772Z,15.05
2022-12-28T17:17:05.915Z,13.73
2022-12-28T17:19:33.787Z,17.70
2022-12-28T17:22:01.358Z,11.68
2022-12-28T17:24:29.819Z,12.80
2022-12-28T17:27:01.678Z,10.88
2022-12-28T17:29:33.638Z,12.05
2022-12-28T17:32:01.322Z,10.73
2022-12-28T17:34:29.019Z,13.45
2022-12-28T17:36:57.523Z,11.20
2022-12-28T17:39:25.387Z,19.60
2022-12-28T17:41:53.242Z,13.48
2022-12-28T17:44:21.267Z,10.73
2022-12-28T17:46:48.986Z,10.27
2022-12-28T17:49:16.718Z,13.77
2022-12-28T17:51:44.578Z,7.30
2022-12-28T17:54:14.721Z,11.43
2022-12-28T17:56:43.540Z,10.02
2022-12-28T17:59:16.637Z,11.90
2022-12-28T18:01:44.341Z,9.73
2022-12-28T18:04:12.466Z,11.93
2022-12-28T18:06:40.693Z,10.45
2022-12-28T18:09:08.649Z,9.73
2022-12-28T18:11:36.151Z,12.35
2022-12-28T18:14:04.135Z,12.20
2022-12-28T18:16:31.681Z,9.88
2022-12-28T18:18:59.412Z,13.07
2022-12-28T18:21:27.046Z,12.15
2022-12-28T18:23:58.140Z,16.30
2022-12-28T18:26:27.007Z,17.92
2022-12-28T18:28:55.976Z,15.20
2022-12-28T18:31:25.172Z,11.27
2022-12-28T18:33:53.614Z,12.43
2022-12-28T18:36:21.235Z,16.58
2022-12-28T18:38:49.384Z,12.20
2022-12-28T18:41:18.816Z,13.40
2022-12-28T18:43:46.660Z,14.30
2022-12-28T18:46:14.738Z,11.88
2022-12-28T18:48:43.213Z,14.57
2022-12-28T18:51:13.898Z,12.93
2022-12-28T18:53:42.729Z,13.30
2022-12-28T18:56:16.193Z,11.82
2022-12-28T18:58:45.560Z,13.13
2022-12-28T19:02:04.736Z,18.30
2022-12-28T19:06:41.902Z,15.48
2022-12-28T19:09:10.973Z,16.33
2022-12-28T19:11:39.645Z,14.25
2022-12-28T19:14:10.402Z,22.20
2022-12-28T19:16:38.408Z,17.33
2022-12-28T19:19:05.980Z,17.73
2022-12-28T19:21:39.305Z,24.90
2022-12-28T19:24:09.526Z,15.38
2022-12-28T19:26:37.241Z,12.93
2022-12-28T19:29:05.631Z,20.40
2022-12-28T19:31:35.055Z,16.48
2022-12-28T19:34:02.798Z,14.38
2022-12-28T19:36:30.614Z,15.55
2022-12-28T19:38:58.324Z,10.82
2022-12-28T19:41:26.334Z,12.95
2022-12-28T19:43:54.862Z,15.30
2022-12-28T19:46:31.610Z,16.88
2022-12-28T19:49:01.179Z,23.48
2022-12-28T19:51:31.726Z,20.67
2022-12-28T19:54:01.221Z,28.02
2022-12-28T19:56:29.572Z,38.20
2022-12-28T19:59:05.005Z,28.95
2022-12-28T20:01:35.275Z,32.20
2022-12-28T20:04:08.752Z,32.53
2022-12-28T20:06:40.861Z,33.42
2022-12-28T20:09:08.509Z,36.42
2022-12-28T20:11:36.735Z,34.42
2022-12-28T20:14:05.276Z,34.28
2022-12-28T20:16:34.793Z,37.13
2022-12-28T20:19:06.832Z,34.33
2022-12-28T20:21:36.255Z,31.00
2022-12-28T20:24:05.277Z,28.52
2022-12-28T20:26:32.950Z,30.02
2022-12-28T20:29:01.704Z,30.85
2022-12-28T20:31:30.159Z,29.42
2022-12-28T20:33:57.820Z,29.75
2022-12-28T20:36:27.863Z,30.05
2022-12-28T20:38:56.317Z,25.90
2022-12-28T20:41:44.654Z,27.52
2022-12-28T20:44:17.654Z,26.17
2022-12-28T20:46:45.356Z,21.67
2022-12-28T20:49:14.410Z,22.27
2022-12-28T20:51:42.586Z,19.60
2022-12-28T20:54:11.060Z,20.67
2022-12-28T20:56:41.909Z,17.90
2022-12-28T20:59:11.310Z,21.85
2022-12-28T21:01:40.632Z,32.80
2022-12-28T21:04:09.785Z,21.20
2022-12-28T21:06:37.637Z,27.17
2022-12-28T21:09:05.191Z,21.90
2022-12-28T21:11:33.357Z,18.75
2022-12-28T21:14:01.096Z,26.23
2022-12-28T21:16:28.656Z,20.67
2022-12-28T21:18:56.458Z,22.13
2022-12-28T21:21:23.969Z,26.73
2022-12-28T21:23:54.509Z,29.50
2022-12-28T21:26:22.983Z,27.15
2022-12-28T21:28:50.536Z,27.50
2022-12-28T21:31:21.083Z,21.83
2022-12-28T21:33:48.700Z,23.33
2022-12-28T21:36:18.304Z,29.02
2022-12-28T21:38:48.270Z,54.58
2022-12-28T21:41:39.605Z,26.90
2022-12-28T21:44:09.653Z,30.83
2022-12-28T21:46:37.985Z,30.08
2022-12-28T21:49:06.736Z,30.25
2022-12-28T21:51:39.269Z,33.33
2022-12-28T21:54:15.860Z,30.20
2022-12-28T21:56:45.741Z,31.60
2022-12-28T21:59:13.813Z,31.35
2022-12-28T22:02:01.601Z,28.60
2022-12-28T22:04:48.568Z,36.17
2022-12-28T22:07:18.660Z,26.08
2022-12-28T22:10:05.429Z,29.25
2022-12-28T22:12:34.941Z,25.83
2022-12-28T22:15:38.740Z,27.35
2022-12-28T22:18:36.614Z,23.10
2022-12-28T22:21:05.262Z,27.10
2022-12-28T22:23:34.955Z,23.17
2022-12-28T22:26:03.969Z,29.98
2022-12-28T22:28:32.061Z,28.88
2022-12-28T22:31:05.032Z,20.50
2022-12-28T22:33:33.026Z,18.75
2022-12-28T22:36:15.779Z,22.42
2022-12-28T22:38:43.716Z,21.90
2022-12-28T22:41:12.103Z,21.20
2022-12-28T22:43:39.748Z,16.88
2022-12-28T22:46:12.169Z,15.73
2022-12-28T22:48:39.891Z,14.88
2022-12-28T22:51:10.479Z,15.02
2022-12-28T22:53:40.699Z,17.95
2022-12-28T22:56:11.551Z,15.32
2022-12-28T22:58:40.100Z,18.98
2022-12-28T23:01:13.860Z,14.45
2022-12-28T23:03:43.806Z,23.90
2022-12-28T23:06:13.858Z,20.25
2022-12-28T23:08:42.171Z,18.50
2022-12-28T23:11:31.867Z,16.73
2022-12-28T23:14:20.082Z,19.08
2022-12-28T23:16:48.847Z,15.35
2022-12-28T23:19:35.441Z,13.40
2022-12-28T23:22:22.920Z,18.70
2022-12-28T23:25:09.025Z,13.25
2022-12-28T23:27:39.589Z,11.77
2022-12-28T23:30:10.898Z,14.02
2022-12-28T23:32:39.271Z,11.60
2022-12-28T23:35:07.121Z,18.75
2022-12-28T23:37:34.706Z,17.38
2022-12-28T23:40:02.194Z,17.73
2022-12-28T23:42:30.617Z,14.82
2022-12-28T23:44:58.323Z,14.93
2022-12-28T23:47:30.376Z,11.07
2022-12-28T23:49:57.985Z,11.98
2022-12-28T23:52:26.180Z,13.07
2022-12-28T23:54:54.260Z,14.63
2022-12-28T23:57:22.354Z,17.50
2022-12-28T23:59:49.940Z,15.77
